createdAt,value
2023-04-18T00:00:44.490Z,10.38
2023-04-18T00:03:30.311Z,9.20
2023-04-18T00:06:16.136Z,11.77
2023-04-18T00:09:02.008Z,12.38
2023-04-18T00:11:47.689Z,13.75
2023-04-18T00:14:35.214Z,12.48
2023-04-18T00:17:21.088Z,12.63
2023-04-18T00:20:10.533Z,11.95
2023-04-18T00:22:55.994Z,8.60
2023-04-18T00:25:41.512Z,7.00
2023-04-18T00:28:27.520Z,10.97
2023-04-18T00:31:13.462Z,8.38
2023-04-18T00:33:58.726Z,7.95
2023-04-18T00:36:44.189Z,9.02
2023-04-18T00:39:29.505Z,5.03
2023-04-18T00:42:15.346Z,5.53
2023-04-18T00:45:01.218Z,10.23
2023-04-18T00:47:46.447Z,4.67
2023-04-18T00:50:32.381Z,10.17
2023-04-18T00:53:17.719Z,8.10
2023-04-18T00:56:04.596Z,8.63
2023-04-18T00:58:50.074Z,8.80
2023-04-18T01:01:35.406Z,10.13
2023-04-18T01:04:20.974Z,4.45
2023-04-18T01:07:06.966Z,5.68
2023-04-18T01:09:53.919Z,6.80
2023-04-18T01:12:39.544Z,6.90
2023-04-18T01:15:24.846Z,10.13
2023-04-18T01:18:11.664Z,7.90
2023-04-18T01:21:00.314Z,6.15
2023-04-18T01:23:51.140Z,6.43
2023-04-18T01:26:36.455Z,8.13
2023-04-18T01:29:22.292Z,8.45
2023-04-18T01:32:07.970Z,8.83
2023-04-18T01:34:53.231Z,7.35
2023-04-18T01:37:38.738Z,7.70
2023-04-18T01:40:24.366Z,9.82
2023-04-18T01:43:09.612Z,7.07
2023-04-18T01:45:55.335Z,11.90
2023-04-18T01:48:40.848Z,8.13
2023-04-18T01:51:28.191Z,10.50
2023-04-18T01:54:13.744Z,11.32
2023-04-18T01:56:59.302Z,12.90
2023-04-18T01:59:44.615Z,11.60
2023-04-18T02:02:30.390Z,14.32
2023-04-18T02:05:16.443Z,17.05
2023-04-18T02:08:01.876Z,10.02
2023-04-18T02:10:47.344Z,13.60
2023-04-18T02:13:32.970Z,13.50
2023-04-18T02:16:18.488Z,20.30
2023-04-18T02:19:04.364Z,13.93
2023-04-18T02:21:50.031Z,15.85
2023-04-18T02:24:35.429Z,15.13
2023-04-18T02:27:20.873Z,11.55
2023-04-18T02:30:07.225Z,10.77
2023-04-18T02:32:53.964Z,12.65
2023-04-18T02:35:40.553Z,11.93
2023-04-18T02:41:15.118Z,11.55
2023-04-18T02:44:00.677Z,14.05
2023-04-18T02:46:46.034Z,12.85
2023-04-18T02:49:32.320Z,13.87
2023-04-18T02:52:17.593Z,7.13
2023-04-18T02:55:03.225Z,11.27
2023-04-18T02:57:48.616Z,12.23
2023-04-18T03:00:34.510Z,12.23
2023-04-18T03:03:20.271Z,10.73
2023-04-18T03:06:05.941Z,17.25
2023-04-18T03:08:51.664Z,10.90
2023-04-18T03:11:37.433Z,10.68
2023-04-18T03:14:22.895Z,11.88
2023-04-18T03:17:08.600Z,12.13
2023-04-18T03:19:54.223Z,15.13
2023-04-18T03:22:39.533Z,15.02
2023-04-18T03:25:25.039Z,13.07
2023-04-18T03:28:10.356Z,15.93
2023-04-18T03:30:56.022Z,10.67
2023-04-18T03:33:44.044Z,11.40
2023-04-18T03:36:31.287Z,16.48
2023-04-18T03:39:16.984Z,16.58
2023-04-18T03:42:02.736Z,13.50
2023-04-18T03:44:48.316Z,15.25
2023-04-18T03:47:33.965Z,14.17
2023-04-18T03:50:19.393Z,13.32
2023-04-18T03:53:05.464Z,11.38
2023-04-18T03:55:50.967Z,16.75
2023-04-18T03:58:36.912Z,16.73
2023-04-18T04:01:22.424Z,17.35
2023-04-18T04:04:09.357Z,14.93
2023-04-18T04:06:58.245Z,14.98
2023-04-18T04:09:43.903Z,16.45
2023-04-18T04:12:30.077Z,11.98
2023-04-18T04:15:16.923Z,19.33
2023-04-18T04:18:02.688Z,15.52
2023-04-18T04:20:48.354Z,14.00
2023-04-18T04:23:34.176Z,15.40
2023-04-18T04:26:19.774Z,18.90
2023-04-18T04:29:05.336Z,17.20
2023-04-18T04:31:51.080Z,13.77
2023-04-18T04:34:36.812Z,18.08
2023-04-18T04:37:22.243Z,16.48
2023-04-18T04:40:09.209Z,16.73
2023-04-18T04:42:56.093Z,19.55
2023-04-18T04:45:42.174Z,17.92
2023-04-18T04:48:27.460Z,16.50
2023-04-18T04:51:13.023Z,17.67
2023-04-18T04:53:58.604Z,22.83
2023-04-18T04:56:44.005Z,18.73
2023-04-18T04:59:29.433Z,17.17
2023-04-18T05:02:15.113Z,17.43
2023-04-18T05:05:00.892Z,21.17
2023-04-18T05:07:46.401Z,20.13
2023-04-18T05:10:32.460Z,18.25
2023-04-18T05:13:17.926Z,19.25
2023-04-18T05:16:03.643Z,20.73
2023-04-18T05:18:48.919Z,18.77
2023-04-18T05:21:34.431Z,21.05
2023-04-18T05:24:19.617Z,17.55
2023-04-18T05:27:06.127Z,13.90
2023-04-18T05:32:38.840Z,26.55
2023-04-18T05:35:24.590Z,17.50
2023-04-18T05:38:09.873Z,18.63
2023-04-18T05:40:55.965Z,18.60
2023-04-18T05:43:42.982Z,22.42
2023-04-18T05:46:30.116Z,22.45
2023-04-18T05:49:15.530Z,12.93
2023-04-18T05:52:01.145Z,9.93
2023-04-18T05:54:46.372Z,9.73
2023-04-18T05:57:32.204Z,6.70
2023-04-18T06:00:18.671Z,7.18
2023-04-18T06:05:49.816Z,6.03
2023-04-18T06:08:35.493Z,6.20
2023-04-18T06:11:21.527Z,6.25
2023-04-18T06:14:07.655Z,7.00
2023-04-18T06:16:53.218Z,6.63
2023-04-18T06:19:39.491Z,10.25
2023-04-18T06:25:10.588Z,6.88
2023-04-18T06:27:55.996Z,8.82
2023-04-18T06:30:41.846Z,8.70
2023-04-18T06:33:27.251Z,9.67
2023-04-18T06:36:12.790Z,7.93
2023-04-18T06:38:58.488Z,9.10
2023-04-18T06:41:43.770Z,7.55
2023-04-18T06:44:29.497Z,8.20
2023-04-18T06:47:15.780Z,7.95
2023-04-18T06:50:01.192Z,6.45
2023-04-18T06:52:47.146Z,7.40
2023-04-18T06:55:32.547Z,6.23
2023-04-18T06:58:18.098Z,6.20
2023-04-18T07:03:40.811Z,9.48
2023-04-18T07:06:26.713Z,5.90
2023-04-18T07:09:12.169Z,10.65
2023-04-18T07:11:57.376Z,6.93
2023-04-18T07:14:42.781Z,9.00
2023-04-18T07:17:28.601Z,7.03
2023-04-18T07:20:14.418Z,7.37
2023-04-18T07:23:00.320Z,14.52
2023-04-18T07:25:45.910Z,9.33
2023-04-18T07:28:32.143Z,10.30
2023-04-18T07:31:19.585Z,8.20
2023-04-18T07:34:05.629Z,7.10
2023-04-18T07:36:51.270Z,7.10
2023-04-18T07:39:37.145Z,8.73
2023-04-18T07:42:22.550Z,9.32
2023-04-18T07:45:08.274Z,8.00
2023-04-18T07:47:53.974Z,6.65
2023-04-18T07:50:39.364Z,7.45
2023-04-18T07:53:25.068Z,9.02
2023-04-18T07:56:12.386Z,7.85
2023-04-18T07:58:57.812Z,6.13
2023-04-18T08:01:43.297Z,6.17
2023-04-18T08:04:30.392Z,5.28
2023-04-18T08:07:16.990Z,5.85
2023-04-18T08:10:02.702Z,6.78
2023-04-18T08:12:48.197Z,5.50
2023-04-18T08:15:33.773Z,6.47
2023-04-18T08:18:19.943Z,5.72
2023-04-18T08:21:05.510Z,4.70
2023-04-18T08:23:51.077Z,3.80
2023-04-18T08:26:36.486Z,5.07
2023-04-18T08:29:21.944Z,4.30
2023-04-18T08:32:07.939Z,4.30
2023-04-18T08:34:53.487Z,5.63
2023-04-18T08:37:39.245Z,6.07
2023-04-18T08:40:24.594Z,4.72
2023-04-18T08:43:13.985Z,4.68
2023-04-18T08:46:00.790Z,6.72
2023-04-18T08:48:49.407Z,7.30
2023-04-18T08:51:36.314Z,8.73
2023-04-18T08:54:22.422Z,6.18
2023-04-18T08:59:55.301Z,7.05
2023-04-18T09:02:45.045Z,6.07
2023-04-18T09:05:30.778Z,7.22
2023-04-18T09:08:26.175Z,7.20
2023-04-18T09:11:21.055Z,7.50
2023-04-18T09:14:07.739Z,6.35
2023-04-18T09:19:46.311Z,5.90
2023-04-18T09:26:39.337Z,5.45
2023-04-18T09:32:30.678Z,7.25
2023-04-18T09:35:25.253Z,4.75
2023-04-18T09:38:10.668Z,5.63
2023-04-18T09:41:10.457Z,4.60
2023-04-18T09:44:17.726Z,4.35
2023-04-18T09:47:03.560Z,5.20
2023-04-18T09:49:48.873Z,4.68
2023-04-18T09:52:36.359Z,2.78
2023-04-18T09:55:22.007Z,4.45
2023-04-18T09:58:08.781Z,5.50
2023-04-18T10:00:56.026Z,4.70
2023-04-18T10:03:47.014Z,6.18
2023-04-18T10:06:34.420Z,2.85
2023-04-18T10:09:21.731Z,7.88
2023-04-18T10:12:07.648Z,4.25
2023-04-18T10:14:54.063Z,8.73
2023-04-18T10:18:03.328Z,3.45
2023-04-18T10:20:51.621Z,4.40
2023-04-18T10:23:40.448Z,2.75
2023-04-18T10:26:46.774Z,3.20
2023-04-18T10:29:53.733Z,4.32
2023-04-18T10:32:39.823Z,4.00
2023-04-18T10:35:26.270Z,3.53
2023-04-18T10:38:16.678Z,3.20
2023-04-18T10:41:27.827Z,3.15
2023-04-18T10:44:18.247Z,4.25
2023-04-18T10:47:06.729Z,3.13
2023-04-18T10:49:57.054Z,5.65
2023-04-18T10:52:43.313Z,3.10
2023-04-18T10:55:30.848Z,17.08
2023-04-18T10:58:16.863Z,2.65
2023-04-18T11:01:03.569Z,4.40
2023-04-18T11:03:49.358Z,6.47
2023-04-18T11:06:49.706Z,4.13
2023-04-18T11:09:35.027Z,2.63
2023-04-18T11:12:20.771Z,2.22
2023-04-18T11:15:17.636Z,2.58
2023-04-18T11:20:51.142Z,2.13
2023-04-18T11:23:36.910Z,2.78
2023-04-18T11:26:26.958Z,2.63
2023-04-18T11:29:12.562Z,2.20
2023-04-18T11:31:58.785Z,2.27
2023-04-18T11:34:44.530Z,3.03
2023-04-18T11:37:30.604Z,4.47
2023-04-18T11:40:16.527Z,2.03
2023-04-18T11:43:03.423Z,2.50
2023-04-18T11:45:53.524Z,9.43
2023-04-18T11:48:41.193Z,2.47
2023-04-18T11:51:35.727Z,2.45
2023-04-18T11:54:41.807Z,2.53
2023-04-18T11:57:30.221Z,8.90
2023-04-18T12:00:16.106Z,3.92
2023-04-18T12:03:07.864Z,3.42
2023-04-18T12:06:01.134Z,2.50
2023-04-18T12:08:46.914Z,3.53
2023-04-18T12:11:32.492Z,2.47
2023-04-18T12:14:21.866Z,4.70
2023-04-18T12:17:07.124Z,3.58
2023-04-18T12:19:53.790Z,4.18
2023-04-18T12:22:47.424Z,2.25
2023-04-18T12:25:33.429Z,2.88
2023-04-18T12:28:19.886Z,2.88
2023-04-18T12:31:08.282Z,4.63
2023-04-18T12:33:54.379Z,4.07
2023-04-18T12:36:39.706Z,3.55
2023-04-18T12:39:25.958Z,3.90
2023-04-18T12:42:11.761Z,3.15
2023-04-18T12:44:57.082Z,2.05
2023-04-18T12:47:45.313Z,5.30
2023-04-18T12:50:30.762Z,3.28
2023-04-18T12:53:16.229Z,2.83
2023-04-18T12:56:02.358Z,3.90
2023-04-18T12:58:48.004Z,4.03
2023-04-18T13:01:33.449Z,3.85
2023-04-18T13:04:19.423Z,3.15
2023-04-18T13:07:05.202Z,3.05
2023-04-18T13:09:50.888Z,2.58
2023-04-18T13:12:37.225Z,2.97
2023-04-18T13:15:22.679Z,5.05
2023-04-18T13:18:08.427Z,2.67
2023-04-18T13:20:55.901Z,3.35
2023-04-18T13:23:41.412Z,3.05
2023-04-18T13:26:27.179Z,3.10
2023-04-18T13:29:12.972Z,2.72
2023-04-18T13:31:59.674Z,3.97
2023-04-18T13:34:47.235Z,4.00
2023-04-18T13:37:32.912Z,3.70
2023-04-18T13:40:18.297Z,8.55
2023-04-18T13:43:03.610Z,4.88
2023-04-18T13:45:49.092Z,7.18
2023-04-18T13:48:34.726Z,4.38
2023-04-18T13:51:20.271Z,4.25
2023-04-18T13:54:05.815Z,6.13
2023-04-18T13:56:51.484Z,3.78
2023-04-18T13:59:40.134Z,4.93
2023-04-18T14:02:25.903Z,4.47
2023-04-18T14:05:11.583Z,4.03
2023-04-18T14:08:03.713Z,4.87
2023-04-18T14:10:49.418Z,5.20
2023-04-18T14:13:35.199Z,3.15
2023-04-18T14:16:20.840Z,5.75
2023-04-18T14:19:06.471Z,3.20
2023-04-18T14:21:51.723Z,4.10
2023-04-18T14:24:40.264Z,3.70
2023-04-18T14:27:26.125Z,5.82
2023-04-18T14:30:13.065Z,6.35
2023-04-18T14:32:58.671Z,6.47
2023-04-18T14:35:44.126Z,6.70
2023-04-18T14:38:29.382Z,13.07
2023-04-18T14:41:15.214Z,4.03
2023-04-18T14:44:00.824Z,4.43
2023-04-18T14:46:46.367Z,12.00
2023-04-18T14:49:31.890Z,4.17
2023-04-18T14:52:17.355Z,4.95
2023-04-18T14:55:03.165Z,6.55
2023-04-18T14:57:48.776Z,5.22
2023-04-18T15:00:34.134Z,4.50
2023-04-18T15:03:19.658Z,5.95
2023-04-18T15:06:05.545Z,5.03
2023-04-18T15:08:52.568Z,8.30
2023-04-18T15:11:38.213Z,5.50
2023-04-18T15:14:23.467Z,4.95
2023-04-18T15:17:09.087Z,6.10
2023-04-18T15:19:54.463Z,8.23
2023-04-18T15:22:39.878Z,6.05
2023-04-18T15:25:26.100Z,6.38
2023-04-18T15:30:59.971Z,4.25
2023-04-18T15:33:45.614Z,4.68
2023-04-18T15:36:31.736Z,6.10
2023-04-18T15:39:23.349Z,5.90
2023-04-18T15:42:09.177Z,6.75
2023-04-18T15:44:54.604Z,5.00
2023-04-18T15:47:40.761Z,5.22
2023-04-18T15:50:26.471Z,7.03
2023-04-18T15:53:12.037Z,6.38
2023-04-18T15:55:59.831Z,4.93
2023-04-18T15:58:45.590Z,5.22
2023-04-18T16:01:30.959Z,4.80
2023-04-18T16:04:16.477Z,4.57
2023-04-18T16:07:02.057Z,4.43
2023-04-18T16:09:47.788Z,2.92
2023-04-18T16:12:33.188Z,4.28
2023-04-18T16:15:18.594Z,3.17
2023-04-18T16:18:04.300Z,3.20
2023-04-18T16:20:49.749Z,4.20
2023-04-18T16:23:35.263Z,4.63
2023-04-18T16:26:21.230Z,4.75
2023-04-18T16:29:06.819Z,10.18
2023-04-18T16:31:52.522Z,2.83
2023-04-18T16:34:37.889Z,2.65
2023-04-18T16:37:23.564Z,5.17
2023-04-18T16:40:10.124Z,2.33
2023-04-18T16:45:40.968Z,2.83
2023-04-18T16:48:26.657Z,3.78
2023-04-18T16:51:13.042Z,4.78
2023-04-18T16:53:58.403Z,2.65
2023-04-18T16:56:44.668Z,3.03
2023-04-18T16:59:30.397Z,2.67
2023-04-18T17:02:16.249Z,2.33
2023-04-18T17:05:02.090Z,3.05
2023-04-18T17:07:49.761Z,2.05
2023-04-18T17:10:35.640Z,2.58
2023-04-18T17:13:26.587Z,2.95
2023-04-18T17:16:12.485Z,3.35
2023-04-18T17:18:57.869Z,2.35
2023-04-18T17:21:44.054Z,5.28
2023-04-18T17:27:14.974Z,1.80
2023-04-18T17:30:00.777Z,11.55
2023-04-18T17:32:46.331Z,2.30
2023-04-18T17:35:31.830Z,2.60
2023-04-18T17:38:17.689Z,1.85
2023-04-18T17:41:04.597Z,5.90
2023-04-18T17:43:53.227Z,3.28
2023-04-18T17:46:38.758Z,2.33
2023-04-18T17:49:24.082Z,2.20
2023-04-18T17:52:09.613Z,2.25
2023-04-18T17:54:56.265Z,2.43
2023-04-18T17:57:41.735Z,3.20
2023-04-18T18:00:27.095Z,3.65
2023-04-18T18:03:16.006Z,1.85
2023-04-18T18:06:01.807Z,11.48
2023-04-18T18:08:47.127Z,2.67
2023-04-18T18:11:32.773Z,1.63
2023-04-18T18:14:18.386Z,2.38
2023-04-18T18:17:04.908Z,4.18
2023-04-18T18:22:36.159Z,2.13
2023-04-18T18:25:21.784Z,6.43
2023-04-18T18:28:07.350Z,2.80
2023-04-18T18:30:53.803Z,4.60
2023-04-18T18:33:39.235Z,2.38
2023-04-18T18:36:24.898Z,2.15
2023-04-18T18:39:11.056Z,2.45
2023-04-18T18:41:58.187Z,4.22
2023-04-18T18:44:43.797Z,2.85
2023-04-18T18:47:30.543Z,2.80
2023-04-18T18:53:01.803Z,2.97
2023-04-18T18:55:46.963Z,2.87
2023-04-18T18:58:32.653Z,6.75
2023-04-18T19:01:17.955Z,4.07
2023-04-18T19:04:04.077Z,2.10
2023-04-18T19:06:49.730Z,3.95
2023-04-18T19:09:36.822Z,5.63
2023-04-18T19:12:22.552Z,4.10
2023-04-18T19:15:08.943Z,5.10
2023-04-18T19:17:55.607Z,4.10
2023-04-18T19:20:41.735Z,5.32
2023-04-18T19:23:27.813Z,4.45
2023-04-18T19:26:13.341Z,5.85
2023-04-18T19:28:58.941Z,3.07
2023-04-18T19:31:44.585Z,4.28
2023-04-18T19:34:30.125Z,4.78
2023-04-18T19:37:15.831Z,6.17
2023-04-18T19:40:02.462Z,6.07
2023-04-18T19:45:33.418Z,3.70
2023-04-18T19:48:18.786Z,3.30
2023-04-18T19:51:04.665Z,3.38
2023-04-18T19:53:50.555Z,2.33
2023-04-18T19:56:36.373Z,4.68
2023-04-18T19:59:21.611Z,3.95
2023-04-18T20:02:07.697Z,3.45
2023-04-18T20:04:53.357Z,5.03
2023-04-18T20:07:39.170Z,6.38
2023-04-18T20:10:24.520Z,3.30
2023-04-18T20:13:10.170Z,3.50
2023-04-18T20:15:56.037Z,4.18
2023-04-18T20:18:41.765Z,7.13
2023-04-18T20:21:27.359Z,3.60
2023-04-18T20:24:13.362Z,4.50
2023-04-18T20:26:59.353Z,5.63
2023-04-18T20:29:45.105Z,4.65
2023-04-18T20:32:30.899Z,8.35
2023-04-18T20:35:16.349Z,3.40
2023-04-18T20:38:01.709Z,3.95
2023-04-18T20:40:48.807Z,2.95
2023-04-18T20:43:37.201Z,5.50
2023-04-18T20:46:23.065Z,4.75
2023-04-18T20:49:09.388Z,5.05
2023-04-18T20:51:55.124Z,6.03
2023-04-18T20:54:41.658Z,3.35
2023-04-18T21:00:13.917Z,3.22
2023-04-18T21:05:45.015Z,7.18
2023-04-18T21:08:31.593Z,3.50
2023-04-18T21:11:17.293Z,5.03
2023-04-18T21:14:06.084Z,3.10
2023-04-18T21:16:51.551Z,2.72
2023-04-18T21:19:37.292Z,3.83
2023-04-18T21:22:22.838Z,3.13
2023-04-18T21:25:08.842Z,3.20
2023-04-18T21:27:54.476Z,4.30
2023-04-18T21:30:39.712Z,3.88
2023-04-18T21:33:26.105Z,3.42
2023-04-18T21:36:11.445Z,4.13
2023-04-18T21:38:58.757Z,4.70
2023-04-18T21:41:44.778Z,2.63
2023-04-18T21:44:31.107Z,3.90
2023-04-18T21:47:16.446Z,3.45
2023-04-18T21:50:03.887Z,3.33
2023-04-18T21:52:49.485Z,3.72
2023-04-18T21:55:34.798Z,6.13
2023-04-18T21:58:20.402Z,4.65
2023-04-18T22:01:05.993Z,5.83
2023-04-18T22:03:52.484Z,3.70
2023-04-18T22:06:37.832Z,3.72
2023-04-18T22:09:23.506Z,3.75
2023-04-18T22:12:08.768Z,4.77
2023-04-18T22:14:54.598Z,4.17
2023-04-18T22:17:41.266Z,6.33
2023-04-18T22:20:26.776Z,3.53
2023-04-18T22:23:12.193Z,5.50
2023-04-18T22:25:57.640Z,4.57
2023-04-18T22:28:43.418Z,9.57
2023-04-18T22:31:29.058Z,5.60
2023-04-18T22:34:14.728Z,2.00
2023-04-18T22:37:00.684Z,5.60
2023-04-18T22:39:45.952Z,2.55
2023-04-18T22:42:35.597Z,3.33
2023-04-18T22:45:22.166Z,4.13
2023-04-18T22:48:11.527Z,3.47
2023-04-18T22:50:56.938Z,3.83
2023-04-18T22:53:42.314Z,5.82
2023-04-18T22:56:28.002Z,2.60
2023-04-18T22:59:13.577Z,6.85
2023-04-18T23:01:59.299Z,3.03
2023-04-18T23:04:45.883Z,4.70
2023-04-18T23:07:31.750Z,3.55
2023-04-18T23:10:17.317Z,4.78
2023-04-18T23:13:02.877Z,3.75
2023-04-18T23:15:48.447Z,2.80
2023-04-18T23:18:33.756Z,5.22
2023-04-18T23:21:19.183Z,6.35
2023-04-18T23:24:04.918Z,2.87
2023-04-18T23:26:50.242Z,3.85
2023-04-18T23:29:39.059Z,3.70
2023-04-18T23:32:24.770Z,3.35
2023-04-18T23:35:11.392Z,5.33
2023-04-18T23:37:57.253Z,4.78
2023-04-18T23:40:42.444Z,4.03
2023-04-18T23:43:28.061Z,5.88
2023-04-18T23:46:13.762Z,3.50
2023-04-18T23:48:59.355Z,7.67
2023-04-18T23:51:44.636Z,5.43
2023-04-18T23:54:30.353Z,4.00
2023-04-18T23:57:16.246Z,3.97
